sensor_id;sensor_type;location;lat;lon;timestamp;P1;durP1;ratioP1;P2;durP2;ratioP2
9330;SDS011;4704;50.470;12.072;2023-02-28T00:02:08;7.78;;;7.18;;
9330;SDS011;4704;50.470;12.072;2023-02-28T00:04:35;7.50;;;6.90;;
9330;SDS011;4704;50.470;12.072;2023-02-28T00:07:04;7.05;;;6.55;;
9330;SDS011;4704;50.470;12.072;2023-02-28T00:09:32;6.78;;;6.18;;
9330;SDS011;4704;50.470;12.072;2023-02-28T00:11:59;6.88;;;6.38;;
9330;SDS011;4704;50.470;12.072;2023-02-28T00:14:29;6.65;;;6.13;;
9330;SDS011;4704;50.470;12.072;2023-02-28T00:16:57;6.57;;;6.07;;
9330;SDS011;4704;50.470;12.072;2023-02-28T00:19:24;6.72;;;6.18;;
9330;SDS011;4704;50.470;12.072;2023-02-28T00:21:52;6.15;;;5.65;;
9330;SDS011;4704;50.470;12.072;2023-02-28T00:24:21;6.10;;;5.70;;
9330;SDS011;4704;50.470;12.072;2023-02-28T00:26:48;6.20;;;5.70;;
9330;SDS011;4704;50.470;12.072;2023-02-28T00:29:16;5.63;;;5.13;;
9330;SDS011;4704;50.470;12.072;2023-02-28T00:31:43;5.97;;;5.50;;
9330;SDS011;4704;50.470;12.072;2023-02-28T00:34:11;5.50;;;5.10;;
9330;SDS011;4704;50.470;12.072;2023-02-28T00:36:38;5.45;;;5.05;;
9330;SDS011;4704;50.470;12.072;2023-02-28T00:39:10;5.63;;;5.15;;
9330;SDS011;4704;50.470;12.072;2023-02-28T00:41:39;5.30;;;4.90;;
9330;SDS011;4704;50.470;12.072;2023-02-28T00:44:06;5.50;;;5.10;;
9330;SDS011;4704;50.470;12.072;2023-02-28T00:46:34;5.22;;;4.82;;
9330;SDS011;4704;50.470;12.072;2023-02-28T00:49:01;5.30;;;4.90;;
9330;SDS011;4704;50.470;12.072;2023-02-28T00:51:29;4.82;;;4.43;;
9330;SDS011;4704;50.470;12.072;2023-02-28T00:53:56;4.95;;;4.55;;
9330;SDS011;4704;50.470;12.072;2023-02-28T00:56:24;5.22;;;4.68;;
9330;SDS011;4704;50.470;12.072;2023-02-28T00:58:53;4.72;;;4.43;;
9330;SDS011;4704;50.470;12.072;2023-02-28T01:01:20;4.70;;;4.30;;
9330;SDS011;4704;50.470;12.072;2023-02-28T01:03:48;4.55;;;4.25;;
9330;SDS011;4704;50.470;12.072;2023-02-28T01:06:15;4.78;;;4.47;;
9330;SDS011;4704;50.470;12.072;2023-02-28T01:08:42;4.75;;;4.35;;
9330;SDS011;4704;50.470;12.072;2023-02-28T01:11:10;4.90;;;4.50;;
9330;SDS011;4704;50.470;12.072;2023-02-28T01:13:38;4.40;;;4.10;;
9330;SDS011;4704;50.470;12.072;2023-02-28T01:16:07;4.20;;;3.90;;
9330;SDS011;4704;50.470;12.072;2023-02-28T01:18:35;4.05;;;3.75;;
9330;SDS011;4704;50.470;12.072;2023-02-28T01:21:03;4.35;;;3.95;;
9330;SDS011;4704;50.470;12.072;2023-02-28T01:23:31;4.10;;;3.80;;
9330;SDS011;4704;50.470;12.072;2023-02-28T01:26:03;3.90;;;3.60;;
9330;SDS011;4704;50.470;12.072;2023-02-28T01:28:30;4.30;;;4.00;;
9330;SDS011;4704;50.470;12.072;2023-02-28T01:30:57;4.28;;;3.97;;
9330;SDS011;4704;50.470;12.072;2023-02-28T01:33:26;3.90;;;3.60;;
9330;SDS011;4704;50.470;12.072;2023-02-28T01:35:57;3.95;;;3.65;;
9330;SDS011;4704;50.470;12.072;2023-02-28T01:38:24;3.67;;;3.38;;
9330;SDS011;4704;50.470;12.072;2023-02-28T01:40:52;4.18;;;3.88;;
9330;SDS011;4704;50.470;12.072;2023-02-28T01:43:21;3.60;;;3.30;;
9330;SDS011;4704;50.470;12.072;2023-02-28T01:45:49;4.15;;;3.85;;
9330;SDS011;4704;50.470;12.072;2023-02-28T01:48:16;3.80;;;3.40;;
9330;SDS011;4704;50.470;12.072;2023-02-28T01:50:47;3.63;;;3.40;;
9330;SDS011;4704;50.470;12.072;2023-02-28T01:53:15;3.65;;;3.40;;
9330;SDS011;4704;50.470;12.072;2023-02-28T01:55:45;3.33;;;3.13;;
9330;SDS011;4704;50.470;12.072;2023-02-28T01:58:13;3.47;;;3.20;;
9330;SDS011;4704;50.470;12.072;2023-02-28T02:00:41;3.45;;;3.25;;
9330;SDS011;4704;50.470;12.072;2023-02-28T02:03:09;3.17;;;2.97;;
9330;SDS011;4704;50.470;12.072;2023-02-28T02:05:38;3.50;;;3.20;;
9330;SDS011;4704;50.470;12.072;2023-02-28T02:08:08;3.38;;;3.08;;
9330;SDS011;4704;50.470;12.072;2023-02-28T02:10:39;3.30;;;3.00;;
9330;SDS011;4704;50.470;12.072;2023-02-28T02:13:17;3.08;;;2.88;;
9330;SDS011;4704;50.470;12.072;2023-02-28T02:15:49;3.45;;;3.20;;
9330;SDS011;4704;50.470;12.072;2023-02-28T02:18:23;3.28;;;3.00;;
9330;SDS011;4704;50.470;12.072;2023-02-28T02:21:02;3.10;;;2.90;;
9330;SDS011;4704;50.470;12.072;2023-02-28T02:26:39;3.08;;;2.88;;
9330;SDS011;4704;50.470;12.072;2023-02-28T02:29:23;3.03;;;2.83;;
9330;SDS011;4704;50.470;12.072;2023-02-28T02:32:04;2.97;;;2.78;;
9330;SDS011;4704;50.470;12.072;2023-02-28T02:34:43;2.80;;;2.60;;
9330;SDS011;4704;50.470;12.072;2023-02-28T02:37:17;3.10;;;2.88;;
9330;SDS011;4704;50.470;12.072;2023-02-28T02:39:48;3.17;;;2.97;;
9330;SDS011;4704;50.470;12.072;2023-02-28T02:42:19;2.80;;;2.60;;
9330;SDS011;4704;50.470;12.072;2023-02-28T02:44:50;3.10;;;2.90;;
9330;SDS011;4704;50.470;12.072;2023-02-28T02:47:21;2.90;;;2.70;;
9330;SDS011;4704;50.470;12.072;2023-02-28T02:49:52;3.03;;;2.83;;
9330;SDS011;4704;50.470;12.072;2023-02-28T02:52:22;2.97;;;2.78;;
9330;SDS011;4704;50.470;12.072;2023-02-28T02:54:51;3.00;;;2.80;;
9330;SDS011;4704;50.470;12.072;2023-02-28T02:57:21;2.72;;;2.53;;
9330;SDS011;4704;50.470;12.072;2023-02-28T02:59:50;3.00;;;2.80;;
9330;SDS011;4704;50.470;12.072;2023-02-28T03:02:19;2.67;;;2.47;;
9330;SDS011;4704;50.470;12.072;2023-02-28T03:04:48;3.00;;;2.80;;
9330;SDS011;4704;50.470;12.072;2023-02-28T03:07:20;2.75;;;2.55;;
9330;SDS011;4704;50.470;12.072;2023-02-28T03:09:50;2.72;;;2.53;;
9330;SDS011;4704;50.470;12.072;2023-02-28T03:12:19;2.60;;;2.40;;
9330;SDS011;4704;50.470;12.072;2023-02-28T03:14:50;2.90;;;2.70;;
9330;SDS011;4704;50.470;12.072;2023-02-28T03:17:27;2.90;;;2.70;;
9330;SDS011;4704;50.470;12.072;2023-02-28T03:20:08;2.92;;;2.72;;
9330;SDS011;4704;50.470;12.072;2023-02-28T03:25:25;2.65;;;2.45;;
9330;SDS011;4704;50.470;12.072;2023-02-28T03:28:00;2.92;;;2.72;;
9330;SDS011;4704;50.470;12.072;2023-02-28T03:30:29;2.70;;;2.50;;
9330;SDS011;4704;50.470;12.072;2023-02-28T03:32:59;2.55;;;2.35;;
9330;SDS011;4704;50.470;12.072;2023-02-28T03:35:30;2.75;;;2.55;;
9330;SDS011;4704;50.470;12.072;2023-02-28T03:38:00;3.00;;;2.70;;
9330;SDS011;4704;50.470;12.072;2023-02-28T03:40:32;2.45;;;2.25;;
9330;SDS011;4704;50.470;12.072;2023-02-28T03:43:01;2.70;;;2.50;;
9330;SDS011;4704;50.470;12.072;2023-02-28T03:45:30;2.60;;;2.40;;
9330;SDS011;4704;50.470;12.072;2023-02-28T03:48:01;2.67;;;2.47;;
9330;SDS011;4704;50.470;12.072;2023-02-28T03:50:32;2.50;;;2.30;;
9330;SDS011;4704;50.470;12.072;2023-02-28T03:53:03;2.60;;;2.40;;
9330;SDS011;4704;50.470;12.072;2023-02-28T03:55:34;2.15;;;2.05;;
9330;SDS011;4704;50.470;12.072;2023-02-28T03:58:05;2.63;;;2.42;;
9330;SDS011;4704;50.470;12.072;2023-02-28T04:00:37;2.70;;;2.50;;
9330;SDS011;4704;50.470;12.072;2023-02-28T04:03:06;2.20;;;2.10;;
9330;SDS011;4704;50.470;12.072;2023-02-28T04:05:33;2.10;;;2.00;;
9330;SDS011;4704;50.470;12.072;2023-02-28T04:08:13;2.85;;;2.65;;
9330;SDS011;4704;50.470;12.072;2023-02-28T04:10:42;2.65;;;2.45;;
9330;SDS011;4704;50.470;12.072;2023-02-28T04:13:12;2.55;;;2.35;;
9330;SDS011;4704;50.470;12.072;2023-02-28T04:15:39;2.35;;;2.15;;
9330;SDS011;4704;50.470;12.072;2023-02-28T04:18:07;2.28;;;2.17;;
9330;SDS011;4704;50.470;12.072;2023-02-28T04:20:34;2.53;;;2.33;;
9330;SDS011;4704;50.470;12.072;2023-02-28T04:23:02;2.20;;;2.10;;
9330;SDS011;4704;50.470;12.072;2023-02-28T04:25:29;2.40;;;2.20;;
9330;SDS011;4704;50.470;12.072;2023-02-28T04:27:58;2.15;;;1.95;;
9330;SDS011;4704;50.470;12.072;2023-02-28T04:30:26;2.42;;;2.22;;
9330;SDS011;4704;50.470;12.072;2023-02-28T04:32:54;2.50;;;2.30;;
9330;SDS011;4704;50.470;12.072;2023-02-28T04:35:22;2.40;;;2.20;;
9330;SDS011;4704;50.470;12.072;2023-02-28T04:37:49;2.30;;;2.10;;
9330;SDS011;4704;50.470;12.072;2023-02-28T04:40:17;2.40;;;2.20;;
9330;SDS011;4704;50.470;12.072;2023-02-28T04:42:44;2.53;;;2.33;;
9330;SDS011;4704;50.470;12.072;2023-02-28T04:45:13;2.33;;;2.13;;
9330;SDS011;4704;50.470;12.072;2023-02-28T04:47:40;2.13;;;2.03;;
9330;SDS011;4704;50.470;12.072;2023-02-28T04:50:08;2.20;;;2.00;;
9330;SDS011;4704;50.470;12.072;2023-02-28T04:52:35;2.10;;;2.00;;
9330;SDS011;4704;50.470;12.072;2023-02-28T04:55:03;2.30;;;2.10;;
9330;SDS011;4704;50.470;12.072;2023-02-28T04:57:31;2.40;;;2.20;;
9330;SDS011;4704;50.470;12.072;2023-02-28T04:59:58;2.42;;;2.22;;
9330;SDS011;4704;50.470;12.072;2023-02-28T05:02:27;2.28;;;2.08;;
9330;SDS011;4704;50.470;12.072;2023-02-28T05:04:55;2.17;;;2.00;;
9330;SDS011;4704;50.470;12.072;2023-02-28T05:07:22;2.40;;;2.20;;
9330;SDS011;4704;50.470;12.072;2023-02-28T05:09:49;2.55;;;2.38;;
9330;SDS011;4704;50.470;12.072;2023-02-28T05:12:18;2.53;;;2.33;;
9330;SDS011;4704;50.470;12.072;2023-02-28T05:14:45;2.50;;;2.30;;
9330;SDS011;4704;50.470;12.072;2023-02-28T05:17:13;2.47;;;2.28;;
9330;SDS011;4704;50.470;12.072;2023-02-28T05:19:42;2.42;;;2.22;;
9330;SDS011;4704;50.470;12.072;2023-02-28T05:22:12;2.10;;;2.00;;
9330;SDS011;4704;50.470;12.072;2023-02-28T05:24:40;2.58;;;2.38;;
9330;SDS011;4704;50.470;12.072;2023-02-28T05:27:08;2.22;;;2.03;;
9330;SDS011;4704;50.470;12.072;2023-02-28T05:29:36;2.40;;;2.20;;
9330;SDS011;4704;50.470;12.072;2023-02-28T05:32:08;2.40;;;2.20;;
9330;SDS011;4704;50.470;12.072;2023-02-28T05:34:36;2.53;;;2.33;;
9330;SDS011;4704;50.470;12.072;2023-02-28T05:37:05;2.30;;;2.13;;
9330;SDS011;4704;50.470;12.072;2023-02-28T05:39:32;2.20;;;2.03;;
9330;SDS011;4704;50.470;12.072;2023-02-28T05:42:00;2.10;;;2.00;;
9330;SDS011;4704;50.470;12.072;2023-02-28T05:44:27;2.10;;;2.00;;
9330;SDS011;4704;50.470;12.072;2023-02-28T05:46:55;2.47;;;2.28;;
9330;SDS011;4704;50.470;12.072;2023-02-28T05:49:22;2.28;;;2.10;;
9330;SDS011;4704;50.470;12.072;2023-02-28T05:51:50;2.30;;;2.10;;
9330;SDS011;4704;50.470;12.072;2023-02-28T05:54:19;2.30;;;2.10;;
9330;SDS011;4704;50.470;12.072;2023-02-28T05:56:46;2.40;;;2.20;;
9330;SDS011;4704;50.470;12.072;2023-02-28T05:59:14;2.30;;;2.10;;
9330;SDS011;4704;50.470;12.072;2023-02-28T06:01:42;2.30;;;2.10;;
9330;SDS011;4704;50.470;12.072;2023-02-28T06:04:13;2.40;;;2.20;;
9330;SDS011;4704;50.470;12.072;2023-02-28T06:06:43;2.78;;;2.50;;
9330;SDS011;4704;50.470;12.072;2023-02-28T06:09:10;2.60;;;2.40;;
9330;SDS011;4704;50.470;12.072;2023-02-28T06:11:39;7.70;;;2.72;;
9330;SDS011;4704;50.470;12.072;2023-02-28T06:14:07;5.72;;;2.60;;
9330;SDS011;4704;50.470;12.072;2023-02-28T06:16:34;4.05;;;2.30;;
9330;SDS011;4704;50.470;12.072;2023-02-28T06:19:03;2.80;;;2.58;;
9330;SDS011;4704;50.470;12.072;2023-02-28T06:21:30;4.50;;;2.45;;
9330;SDS011;4704;50.470;12.072;2023-02-28T06:23:58;3.50;;;2.78;;
9330;SDS011;4704;50.470;12.072;2023-02-28T06:26:25;3.05;;;2.50;;
9330;SDS011;4704;50.470;12.072;2023-02-28T06:28:54;3.78;;;2.58;;
9330;SDS011;4704;50.470;12.072;2023-02-28T06:31:22;3.88;;;2.45;;
9330;SDS011;4704;50.470;12.072;2023-02-28T06:33:51;3.58;;;2.40;;
9330;SDS011;4704;50.470;12.072;2023-02-28T06:36:18;2.55;;;2.35;;
9330;SDS011;4704;50.470;12.072;2023-02-28T06:38:45;3.95;;;2.55;;
9330;SDS011;4704;50.470;12.072;2023-02-28T06:41:16;2.88;;;2.40;;
9330;SDS011;4704;50.470;12.072;2023-02-28T06:43:44;3.00;;;2.20;;
9330;SDS011;4704;50.470;12.072;2023-02-28T06:46:13;3.00;;;2.60;;
9330;SDS011;4704;50.470;12.072;2023-02-28T06:48:42;5.93;;;2.70;;
9330;SDS011;4704;50.470;12.072;2023-02-28T06:51:11;3.05;;;2.55;;
9330;SDS011;4704;50.470;12.072;2023-02-28T06:53:39;3.47;;;2.58;;
9330;SDS011;4704;50.470;12.072;2023-02-28T06:56:07;3.60;;;2.40;;
9330;SDS011;4704;50.470;12.072;2023-02-28T06:58:35;2.67;;;2.33;;
9330;SDS011;4704;50.470;12.072;2023-02-28T07:01:02;3.22;;;2.58;;
9330;SDS011;4704;50.470;12.072;2023-02-28T07:03:31;3.60;;;2.50;;
9330;SDS011;4704;50.470;12.072;2023-02-28T07:05:59;3.45;;;2.42;;
9330;SDS011;4704;50.470;12.072;2023-02-28T07:08:27;2.67;;;2.47;;
9330;SDS011;4704;50.470;12.072;2023-02-28T07:10:54;2.63;;;2.40;;
9330;SDS011;4704;50.470;12.072;2023-02-28T07:13:22;3.30;;;2.55;;
9330;SDS011;4704;50.470;12.072;2023-02-28T07:15:53;4.35;;;2.67;;
9330;SDS011;4704;50.470;12.072;2023-02-28T07:18:20;3.28;;;2.50;;
9330;SDS011;4704;50.470;12.072;2023-02-28T07:20:51;4.10;;;2.38;;
9330;SDS011;4704;50.470;12.072;2023-02-28T07:23:19;3.65;;;2.63;;
9330;SDS011;4704;50.470;12.072;2023-02-28T07:25:46;3.17;;;2.60;;
9330;SDS011;4704;50.470;12.072;2023-02-28T07:28:14;2.65;;;2.22;;
9330;SDS011;4704;50.470;12.072;2023-02-28T07:30:41;2.53;;;2.33;;
9330;SDS011;4704;50.470;12.072;2023-02-28T07:33:09;3.05;;;2.20;;
9330;SDS011;4704;50.470;12.072;2023-02-28T07:35:36;2.65;;;2.45;;
9330;SDS011;4704;50.470;12.072;2023-02-28T07:38:05;3.55;;;2.78;;
9330;SDS011;4704;50.470;12.072;2023-02-28T07:40:33;3.33;;;2.40;;
9330;SDS011;4704;50.470;12.072;2023-02-28T07:43:01;3.17;;;2.53;;
9330;SDS011;4704;50.470;12.072;2023-02-28T07:45:29;3.13;;;2.30;;
9330;SDS011;4704;50.470;12.072;2023-02-28T07:47:59;2.65;;;2.45;;
9330;SDS011;4704;50.470;12.072;2023-02-28T07:50:27;2.70;;;2.50;;
9330;SDS011;4704;50.470;12.072;2023-02-28T07:52:56;3.30;;;2.50;;
9330;SDS011;4704;50.470;12.072;2023-02-28T07:55:25;2.40;;;2.20;;
9330;SDS011;4704;50.470;12.072;2023-02-28T07:57:53;2.95;;;2.08;;
9330;SDS011;4704;50.470;12.072;2023-02-28T08:00:21;2.88;;;2.67;;
9330;SDS011;4704;50.470;12.072;2023-02-28T08:02:48;2.75;;;2.55;;
9330;SDS011;4704;50.470;12.072;2023-02-28T08:05:16;3.20;;;2.38;;
9330;SDS011;4704;50.470;12.072;2023-02-28T08:07:43;2.70;;;2.50;;
9330;SDS011;4704;50.470;12.072;2023-02-28T08:10:12;3.08;;;2.58;;
9330;SDS011;4704;50.470;12.072;2023-02-28T08:12:41;2.60;;;2.40;;
9330;SDS011;4704;50.470;12.072;2023-02-28T08:15:09;2.70;;;2.50;;
9330;SDS011;4704;50.470;12.072;2023-02-28T08:17:37;2.70;;;2.50;;
9330;SDS011;4704;50.470;12.072;2023-02-28T08:20:05;2.67;;;2.47;;
9330;SDS011;4704;50.470;12.072;2023-02-28T08:22:32;2.72;;;2.45;;
9330;SDS011;4704;50.470;12.072;2023-02-28T08:25:00;2.42;;;2.22;;
9330;SDS011;4704;50.470;12.072;2023-02-28T08:27:27;2.47;;;2.28;;
9330;SDS011;4704;50.470;12.072;2023-02-28T08:29:56;3.60;;;2.55;;
9330;SDS011;4704;50.470;12.072;2023-02-28T08:32:23;2.70;;;2.35;;
9330;SDS011;4704;50.470;12.072;2023-02-28T08:34:51;2.60;;;2.40;;
9330;SDS011;4704;50.470;12.072;2023-02-28T08:37:18;2.65;;;2.45;;
9330;SDS011;4704;50.470;12.072;2023-02-28T08:39:46;2.58;;;2.38;;
9330;SDS011;4704;50.470;12.072;2023-02-28T08:42:13;2.47;;;2.28;;
9330;SDS011;4704;50.470;12.072;2023-02-28T08:44:40;2.78;;;2.50;;
9330;SDS011;4704;50.470;12.072;2023-02-28T08:47:09;2.30;;;2.10;;
9330;SDS011;4704;50.470;12.072;2023-02-28T08:49:37;2.50;;;2.30;;
9330;SDS011;4704;50.470;12.072;2023-02-28T08:52:04;2.67;;;2.47;;
9330;SDS011;4704;50.470;12.072;2023-02-28T08:54:32;2.22;;;2.03;;
9330;SDS011;4704;50.470;12.072;2023-02-28T08:57:00;2.65;;;2.45;;
9330;SDS011;4704;50.470;12.072;2023-02-28T08:59:27;2.85;;;2.55;;
9330;SDS011;4704;50.470;12.072;2023-02-28T09:01:54;2.70;;;2.22;;
9330;SDS011;4704;50.470;12.072;2023-02-28T09:04:23;2.85;;;2.55;;
9330;SDS011;4704;50.470;12.072;2023-02-28T09:06:51;2.90;;;2.60;;
9330;SDS011;4704;50.470;12.072;2023-02-28T09:09:18;2.50;;;2.15;;
9330;SDS011;4704;50.470;12.072;2023-02-28T09:11:46;2.80;;;2.42;;
9330;SDS011;4704;50.470;12.072;2023-02-28T09:14:13;2.50;;;2.30;;
9330;SDS011;4704;50.470;12.072;2023-02-28T09:16:42;2.53;;;2.15;;
9330;SDS011;4704;50.470;12.072;2023-02-28T09:19:10;2.60;;;2.40;;
9330;SDS011;4704;50.470;12.072;2023-02-28T09:21:39;2.92;;;2.60;;
9330;SDS011;4704;50.470;12.072;2023-02-28T09:24:07;2.85;;;2.65;;
9330;SDS011;4704;50.470;12.072;2023-02-28T09:26:36;2.80;;;2.60;;
9330;SDS011;4704;50.470;12.072;2023-02-28T09:29:04;2.90;;;2.60;;
9330;SDS011;4704;50.470;12.072;2023-02-28T09:31:31;2.65;;;2.45;;
9330;SDS011;4704;50.470;12.072;2023-02-28T09:33:59;3.00;;;2.70;;
9330;SDS011;4704;50.470;12.072;2023-02-28T09:36:27;2.95;;;2.75;;
9330;SDS011;4704;50.470;12.072;2023-02-28T09:38:56;3.08;;;2.72;;
9330;SDS011;4704;50.470;12.072;2023-02-28T09:41:24;2.92;;;2.67;;
9330;SDS011;4704;50.470;12.072;2023-02-28T09:43:55;2.85;;;2.63;;
9330;SDS011;4704;50.470;12.072;2023-02-28T09:46:30;3.28;;;2.60;;
9330;SDS011;4704;50.470;12.072;2023-02-28T09:48:59;3.15;;;2.47;;
9330;SDS011;4704;50.470;12.072;2023-02-28T09:51:30;3.13;;;2.60;;
9330;SDS011;4704;50.470;12.072;2023-02-28T09:54:01;2.70;;;2.50;;
9330;SDS011;4704;50.470;12.072;2023-02-28T09:56:31;2.83;;;2.25;;
9330;SDS011;4704;50.470;12.072;2023-02-28T09:59:00;3.03;;;2.80;;
9330;SDS011;4704;50.470;12.072;2023-02-28T10:01:29;2.60;;;2.40;;
9330;SDS011;4704;50.470;12.072;2023-02-28T10:03:58;3.38;;;2.58;;
9330;SDS011;4704;50.470;12.072;2023-02-28T10:06:28;2.85;;;2.42;;
9330;SDS011;4704;50.470;12.072;2023-02-28T10:08:58;2.47;;;2.28;;
9330;SDS011;4704;50.470;12.072;2023-02-28T10:11:28;2.80;;;2.40;;
9330;SDS011;4704;50.470;12.072;2023-02-28T10:13:57;2.80;;;2.50;;
9330;SDS011;4704;50.470;12.072;2023-02-28T10:16:29;2.65;;;2.40;;
9330;SDS011;4704;50.470;12.072;2023-02-28T10:18:59;2.45;;;2.25;;
9330;SDS011;4704;50.470;12.072;2023-02-28T10:21:31;2.65;;;2.45;;
9330;SDS011;4704;50.470;12.072;2023-02-28T10:24:05;2.60;;;2.40;;
9330;SDS011;4704;50.470;12.072;2023-02-28T10:26:39;2.55;;;2.35;;
9330;SDS011;4704;50.470;12.072;2023-02-28T10:29:08;2.67;;;2.47;;
9330;SDS011;4704;50.470;12.072;2023-02-28T10:31:36;2.40;;;2.20;;
9330;SDS011;4704;50.470;12.072;2023-02-28T10:34:05;2.70;;;2.33;;
9330;SDS011;4704;50.470;12.072;2023-02-28T10:36:32;2.35;;;2.15;;
9330;SDS011;4704;50.470;12.072;2023-02-28T10:39:00;3.40;;;2.30;;
9330;SDS011;4704;50.470;12.072;2023-02-28T10:41:28;2.60;;;2.40;;
9330;SDS011;4704;50.470;12.072;2023-02-28T10:44:14;2.80;;;2.47;;
9330;SDS011;4704;50.470;12.072;2023-02-28T10:46:42;2.67;;;2.47;;
9330;SDS011;4704;50.470;12.072;2023-02-28T10:49:14;2.60;;;2.40;;
9330;SDS011;4704;50.470;12.072;2023-02-28T10:51:42;2.83;;;2.50;;
9330;SDS011;4704;50.470;12.072;2023-02-28T10:54:15;3.45;;;2.70;;
9330;SDS011;4704;50.470;12.072;2023-02-28T10:56:43;2.60;;;2.40;;
9330;SDS011;4704;50.470;12.072;2023-02-28T10:59:27;2.47;;;2.25;;
9330;SDS011;4704;50.470;12.072;2023-02-28T11:01:55;2.63;;;2.42;;
9330;SDS011;4704;50.470;12.072;2023-02-28T11:04:34;2.58;;;2.38;;
9330;SDS011;4704;50.470;12.072;2023-02-28T11:07:05;2.53;;;2.33;;
9330;SDS011;4704;50.470;12.072;2023-02-28T11:09:33;2.63;;;2.35;;
9330;SDS011;4704;50.470;12.072;2023-02-28T11:12:02;2.80;;;2.60;;
9330;SDS011;4704;50.470;12.072;2023-02-28T11:14:32;2.63;;;2.28;;
9330;SDS011;4704;50.470;12.072;2023-02-28T11:17:00;2.97;;;2.70;;
9330;SDS011;4704;50.470;12.072;2023-02-28T11:19:31;2.65;;;2.42;;
9330;SDS011;4704;50.470;12.072;2023-02-28T11:22:02;2.78;;;2.58;;
9330;SDS011;4704;50.470;12.072;2023-02-28T11:24:31;2.67;;;2.47;;
9330;SDS011;4704;50.470;12.072;2023-02-28T11:27:00;2.70;;;2.50;;
9330;SDS011;4704;50.470;12.072;2023-02-28T11:29:28;2.60;;;2.40;;
9330;SDS011;4704;50.470;12.072;2023-02-28T11:32:05;2.60;;;2.40;;
9330;SDS011;4704;50.470;12.072;2023-02-28T11:34:34;2.58;;;2.38;;
9330;SDS011;4704;50.470;12.072;2023-02-28T11:37:02;2.63;;;2.40;;
9330;SDS011;4704;50.470;12.072;2023-02-28T11:39:31;2.50;;;2.30;;
9330;SDS011;4704;50.470;12.072;2023-02-28T11:44:48;2.60;;;2.30;;
9330;SDS011;4704;50.470;12.072;2023-02-28T11:47:24;2.70;;;2.47;;
9330;SDS011;4704;50.470;12.072;2023-02-28T11:49:56;2.20;;;2.00;;
9330;SDS011;4704;50.470;12.072;2023-02-28T11:52:28;2.80;;;2.60;;
9330;SDS011;4704;50.470;12.072;2023-02-28T11:55:02;2.47;;;2.28;;
9330;SDS011;4704;50.470;12.072;2023-02-28T11:57:35;2.58;;;2.38;;
9330;SDS011;4704;50.470;12.072;2023-02-28T12:00:06;2.58;;;2.38;;
9330;SDS011;4704;50.470;12.072;2023-02-28T12:02:40;2.83;;;2.63;;
9330;SDS011;4704;50.470;12.072;2023-02-28T12:05:15;2.70;;;2.50;;
9330;SDS011;4704;50.470;12.072;2023-02-28T12:07:48;2.72;;;2.53;;
9330;SDS011;4704;50.470;12.072;2023-02-28T12:10:20;2.67;;;2.47;;
9330;SDS011;4704;50.470;12.072;2023-02-28T12:12:49;2.60;;;2.35;;
9330;SDS011;4704;50.470;12.072;2023-02-28T12:15:27;2.88;;;2.58;;
9330;SDS011;4704;50.470;12.072;2023-02-28T12:18:03;2.80;;;2.53;;
9330;SDS011;4704;50.470;12.072;2023-02-28T12:20:36;2.88;;;2.67;;
9330;SDS011;4704;50.470;12.072;2023-02-28T12:23:10;2.80;;;2.60;;
9330;SDS011;4704;50.470;12.072;2023-02-28T12:25:48;2.80;;;2.60;;
9330;SDS011;4704;50.470;12.072;2023-02-28T12:28:16;2.55;;;2.35;;
9330;SDS011;4704;50.470;12.072;2023-02-28T12:30:47;2.72;;;2.35;;
9330;SDS011;4704;50.470;12.072;2023-02-28T12:33:18;2.95;;;2.45;;
9330;SDS011;4704;50.470;12.072;2023-02-28T12:35:48;2.60;;;2.40;;
9330;SDS011;4704;50.470;12.072;2023-02-28T12:38:17;2.80;;;2.60;;
9330;SDS011;4704;50.470;12.072;2023-02-28T12:40:47;2.75;;;2.55;;
9330;SDS011;4704;50.470;12.072;2023-02-28T12:43:16;2.50;;;2.30;;
9330;SDS011;4704;50.470;12.072;2023-02-28T12:45:45;2.65;;;2.45;;
9330;SDS011;4704;50.470;12.072;2023-02-28T12:48:15;2.80;;;2.60;;
9330;SDS011;4704;50.470;12.072;2023-02-28T12:50:46;2.67;;;2.47;;
9330;SDS011;4704;50.470;12.072;2023-02-28T12:53:15;2.50;;;2.30;;
9330;SDS011;4704;50.470;12.072;2023-02-28T12:55:46;2.53;;;2.33;;
9330;SDS011;4704;50.470;12.072;2023-02-28T12:58:17;2.47;;;2.28;;
9330;SDS011;4704;50.470;12.072;2023-02-28T13:00:58;2.97;;;2.78;;
9330;SDS011;4704;50.470;12.072;2023-02-28T13:09:17;2.67;;;2.47;;
9330;SDS011;4704;50.470;12.072;2023-02-28T13:11:46;2.70;;;2.50;;
9330;SDS011;4704;50.470;12.072;2023-02-28T13:14:20;2.78;;;2.58;;
9330;SDS011;4704;50.470;12.072;2023-02-28T13:16:59;3.10;;;2.80;;
9330;SDS011;4704;50.470;12.072;2023-02-28T13:19:29;2.67;;;2.47;;
9330;SDS011;4704;50.470;12.072;2023-02-28T13:21:57;2.78;;;2.40;;
9330;SDS011;4704;50.470;12.072;2023-02-28T13:24:43;2.83;;;2.60;;
9330;SDS011;4704;50.470;12.072;2023-02-28T13:29:59;2.83;;;2.53;;
9330;SDS011;4704;50.470;12.072;2023-02-28T13:38:08;2.70;;;2.50;;
9330;SDS011;4704;50.470;12.072;2023-02-28T13:40:39;2.88;;;2.60;;
9330;SDS011;4704;50.470;12.072;2023-02-28T13:43:07;2.78;;;2.58;;
9330;SDS011;4704;50.470;12.072;2023-02-28T13:45:35;2.70;;;2.50;;
9330;SDS011;4704;50.470;12.072;2023-02-28T13:48:12;2.60;;;2.40;;
9330;SDS011;4704;50.470;12.072;2023-02-28T13:50:42;2.60;;;2.40;;
9330;SDS011;4704;50.470;12.072;2023-02-28T13:53:20;2.50;;;2.30;;
9330;SDS011;4704;50.470;12.072;2023-02-28T13:55:53;2.60;;;2.40;;
9330;SDS011;4704;50.470;12.072;2023-02-28T13:58:27;2.63;;;2.42;;
9330;SDS011;4704;50.470;12.072;2023-02-28T14:06:34;2.60;;;2.40;;
9330;SDS011;4704;50.470;12.072;2023-02-28T14:09:03;3.00;;;2.80;;
9330;SDS011;4704;50.470;12.072;2023-02-28T14:11:36;2.88;;;2.67;;
9330;SDS011;4704;50.470;12.072;2023-02-28T14:14:05;3.22;;;2.95;;
9330;SDS011;4704;50.470;12.072;2023-02-28T14:16:36;2.67;;;2.47;;
9330;SDS011;4704;50.470;12.072;2023-02-28T14:19:09;2.55;;;2.35;;
9330;SDS011;4704;50.470;12.072;2023-02-28T14:21:39;2.63;;;2.42;;
9330;SDS011;4704;50.470;12.072;2023-02-28T14:24:16;3.60;;;2.70;;
9330;SDS011;4704;50.470;12.072;2023-02-28T14:27:11;3.10;;;2.80;;
9330;SDS011;4704;50.470;12.072;2023-02-28T14:29:51;2.95;;;2.75;;
9330;SDS011;4704;50.470;12.072;2023-02-28T14:32:27;3.05;;;2.80;;
9330;SDS011;4704;50.470;12.072;2023-02-28T14:34:57;3.03;;;2.83;;
9330;SDS011;4704;50.470;12.072;2023-02-28T14:37:26;3.20;;;2.88;;
9330;SDS011;4704;50.470;12.072;2023-02-28T14:39:54;2.80;;;2.60;;
9330;SDS011;4704;50.470;12.072;2023-02-28T14:42:29;2.80;;;2.60;;
9330;SDS011;4704;50.470;12.072;2023-02-28T14:44:57;3.05;;;2.85;;
9330;SDS011;4704;50.470;12.072;2023-02-28T14:47:25;2.95;;;2.67;;
9330;SDS011;4704;50.470;12.072;2023-02-28T14:49:54;2.60;;;2.40;;
9330;SDS011;4704;50.470;12.072;2023-02-28T14:52:22;3.03;;;2.83;;
9330;SDS011;4704;50.470;12.072;2023-02-28T14:54:51;2.80;;;2.60;;
9330;SDS011;4704;50.470;12.072;2023-02-28T14:57:23;2.92;;;2.72;;
9330;SDS011;4704;50.470;12.072;2023-02-28T14:59:59;2.97;;;2.78;;
9330;SDS011;4704;50.470;12.072;2023-02-28T15:02:29;3.13;;;2.83;;
9330;SDS011;4704;50.470;12.072;2023-02-28T15:04:58;3.28;;;3.05;;
9330;SDS011;4704;50.470;12.072;2023-02-28T15:07:26;3.10;;;2.90;;
9330;SDS011;4704;50.470;12.072;2023-02-28T15:10:09;3.00;;;2.80;;
9330;SDS011;4704;50.470;12.072;2023-02-28T15:12:37;2.80;;;2.60;;
9330;SDS011;4704;50.470;12.072;2023-02-28T15:15:13;3.00;;;2.80;;
9330;SDS011;4704;50.470;12.072;2023-02-28T15:17:41;3.00;;;2.80;;
9330;SDS011;4704;50.470;12.072;2023-02-28T15:20:10;3.00;;;2.80;;
9330;SDS011;4704;50.470;12.072;2023-02-28T15:22:39;2.95;;;2.75;;
9330;SDS011;4704;50.470;12.072;2023-02-28T15:25:06;2.70;;;2.50;;
9330;SDS011;4704;50.470;12.072;2023-02-28T15:27:44;2.80;;;2.60;;
9330;SDS011;4704;50.470;12.072;2023-02-28T15:30:16;3.25;;;3.00;;
9330;SDS011;4704;50.470;12.072;2023-02-28T15:32:44;3.10;;;2.80;;
9330;SDS011;4704;50.470;12.072;2023-02-28T15:35:18;3.30;;;3.00;;
9330;SDS011;4704;50.470;12.072;2023-02-28T15:37:46;2.83;;;2.50;;
9330;SDS011;4704;50.470;12.072;2023-02-28T15:40:15;3.13;;;2.92;;
9330;SDS011;4704;50.470;12.072;2023-02-28T15:42:43;3.05;;;2.85;;
9330;SDS011;4704;50.470;12.072;2023-02-28T15:45:31;2.83;;;2.63;;